createdAt,value
2022-10-14T00:01:24.557Z,11.07
2022-10-14T00:04:04.932Z,11.75
2022-10-14T00:06:35.935Z,11.13
2022-10-14T00:09:08.769Z,10.48
2022-10-14T00:11:38.648Z,9.93
2022-10-14T00:14:09.840Z,10.98
2022-10-14T00:16:41.034Z,11.20
2022-10-14T00:19:09.473Z,10.27
2022-10-14T00:21:41.507Z,11.15
2022-10-14T00:24:12.111Z,9.93
2022-10-14T00:26:42.057Z,10.57
2022-10-14T00:29:15.903Z,10.98
2022-10-14T00:31:44.100Z,11.13
2022-10-14T00:34:13.238Z,11.32
2022-10-14T00:36:43.375Z,12.25
2022-10-14T00:39:12.271Z,11.25
2022-10-14T00:41:42.017Z,11.48
2022-10-14T00:44:43.421Z,11.55
2022-10-14T00:47:12.134Z,12.13
2022-10-14T00:49:43.373Z,11.07
2022-10-14T00:52:17.731Z,11.70
2022-10-14T00:54:51.360Z,11.25
2022-10-14T00:57:20.754Z,11.38
2022-10-14T00:59:49.626Z,13.18
2022-10-14T01:02:17.856Z,11.30
2022-10-14T01:04:47.160Z,12.15
2022-10-14T01:07:26.598Z,12.30
2022-10-14T01:10:01.772Z,11.63
2022-10-14T01:12:39.921Z,11.85
2022-10-14T01:15:17.896Z,10.80
2022-10-14T01:17:58.085Z,10.85
2022-10-14T01:20:52.527Z,12.63
2022-10-14T01:23:47.399Z,10.45
2022-10-14T01:26:31.064Z,12.35
2022-10-14T01:29:16.314Z,11.93
2022-10-14T01:31:49.984Z,11.35
2022-10-14T01:34:26.534Z,12.43
2022-10-14T01:36:59.997Z,11.40
2022-10-14T01:39:33.183Z,12.07
2022-10-14T01:42:06.800Z,11.48
2022-10-14T01:44:39.187Z,11.65
2022-10-14T01:47:10.761Z,11.80
2022-10-14T01:49:45.062Z,12.13
2022-10-14T01:52:20.167Z,13.90
2022-10-14T01:54:52.453Z,11.85
2022-10-14T01:57:24.644Z,12.55
2022-10-14T01:59:54.283Z,11.88
2022-10-14T02:02:24.454Z,11.65
2022-10-14T02:04:53.522Z,12.68
2022-10-14T02:07:27.324Z,12.68
2022-10-14T02:10:05.103Z,11.50
2022-10-14T02:12:40.599Z,13.38
2022-10-14T02:15:16.960Z,12.82
2022-10-14T02:17:54.337Z,13.23
2022-10-14T02:20:27.161Z,13.18
2022-10-14T02:23:01.266Z,11.50
2022-10-14T02:25:33.640Z,13.00
2022-10-14T02:28:04.669Z,13.00
2022-10-14T02:34:19.538Z,12.70
2022-10-14T02:36:48.976Z,12.05
2022-10-14T02:39:23.705Z,11.45
2022-10-14T02:41:52.181Z,12.20
2022-10-14T02:44:20.964Z,12.52
2022-10-14T02:46:49.982Z,13.37
2022-10-14T02:49:19.984Z,13.15
2022-10-14T02:51:48.734Z,13.30
2022-10-14T02:54:17.019Z,14.37
2022-10-14T02:56:45.237Z,14.10
2022-10-14T02:59:13.716Z,13.37
2022-10-14T03:01:42.015Z,13.32
2022-10-14T03:04:10.233Z,12.95
2022-10-14T03:06:40.089Z,13.38
2022-10-14T03:09:08.232Z,13.40
2022-10-14T03:11:36.638Z,12.18
2022-10-14T03:14:04.829Z,12.68
2022-10-14T03:16:33.368Z,12.77
2022-10-14T03:19:01.568Z,12.63
2022-10-14T03:21:30.033Z,12.87
2022-10-14T03:24:01.637Z,13.27
2022-10-14T03:26:29.915Z,12.90
2022-10-14T03:28:58.620Z,11.85
2022-10-14T03:31:26.990Z,11.88
2022-10-14T03:33:55.532Z,12.68
2022-10-14T03:36:24.136Z,12.60
2022-10-14T03:38:52.334Z,11.70
2022-10-14T03:41:22.020Z,13.55
2022-10-14T03:43:53.413Z,13.30
2022-10-14T03:46:21.654Z,11.07
2022-10-14T03:48:49.808Z,12.38
2022-10-14T03:51:18.248Z,10.55
2022-10-14T03:53:46.551Z,11.13
2022-10-14T03:56:14.825Z,12.13
2022-10-14T03:58:44.651Z,12.73
2022-10-14T04:01:15.300Z,11.73
2022-10-14T04:03:46.593Z,12.77
2022-10-14T04:06:15.434Z,12.05
2022-10-14T04:08:44.115Z,12.35
2022-10-14T04:11:12.695Z,11.73
2022-10-14T04:13:40.946Z,13.35
2022-10-14T04:16:12.164Z,11.82
2022-10-14T04:18:40.919Z,13.00
2022-10-14T04:21:12.340Z,13.73
2022-10-14T04:23:40.761Z,12.82
2022-10-14T04:26:10.776Z,13.43
2022-10-14T04:28:39.282Z,13.02
2022-10-14T04:31:07.645Z,13.80
2022-10-14T04:33:37.536Z,14.45
2022-10-14T04:36:07.670Z,14.43
2022-10-14T04:38:36.063Z,17.50
2022-10-14T04:41:04.557Z,16.00
2022-10-14T04:43:33.014Z,17.13
2022-10-14T04:46:01.431Z,16.45
2022-10-14T04:51:00.216Z,15.98
2022-10-14T04:53:28.521Z,16.73
2022-10-14T04:55:59.112Z,16.50
2022-10-14T04:58:27.339Z,16.13
2022-10-14T05:00:56.229Z,17.60
2022-10-14T05:03:24.428Z,17.93
2022-10-14T05:05:52.995Z,25.40
2022-10-14T05:08:23.066Z,21.50
2022-10-14T05:10:51.270Z,20.08
2022-10-14T05:13:20.031Z,20.52
2022-10-14T05:15:48.781Z,18.40
2022-10-14T05:18:17.201Z,17.87
2022-10-14T05:20:45.857Z,19.60
2022-10-14T05:23:14.337Z,20.27
2022-10-14T05:25:44.813Z,20.25
2022-10-14T05:28:13.039Z,20.40
2022-10-14T05:30:43.441Z,18.73
2022-10-14T05:33:12.198Z,21.55
2022-10-14T05:35:58.097Z,20.58
2022-10-14T05:38:27.447Z,17.58
2022-10-14T05:40:58.674Z,20.98
2022-10-14T05:43:32.001Z,20.00
2022-10-14T05:46:01.016Z,18.90
2022-10-14T05:48:29.476Z,20.08
2022-10-14T05:51:01.567Z,25.17
2022-10-14T05:53:30.721Z,35.25
2022-10-14T05:56:05.699Z,29.38
2022-10-14T05:58:34.587Z,28.13
2022-10-14T06:01:03.010Z,24.80
2022-10-14T06:03:31.398Z,24.50
2022-10-14T06:06:00.151Z,22.73
2022-10-14T06:08:29.867Z,21.80
2022-10-14T06:10:58.132Z,21.35
2022-10-14T06:13:27.983Z,22.17
2022-10-14T06:15:56.263Z,24.02
2022-10-14T06:18:24.541Z,22.90
2022-10-14T06:20:53.976Z,22.50
2022-10-14T06:23:22.276Z,23.70
2022-10-14T06:25:50.938Z,21.92
2022-10-14T06:28:19.937Z,23.08
2022-10-14T06:30:52.123Z,20.33
2022-10-14T06:33:21.156Z,22.38
2022-10-14T06:35:49.799Z,23.70
2022-10-14T06:38:18.045Z,23.10
2022-10-14T06:40:46.624Z,23.37
2022-10-14T06:43:14.864Z,23.85
2022-10-14T06:45:43.179Z,24.45
2022-10-14T06:48:13.168Z,24.17
2022-10-14T06:50:41.854Z,21.33
2022-10-14T06:53:10.133Z,24.88
2022-10-14T06:55:38.738Z,25.07
2022-10-14T06:58:06.914Z,26.00
2022-10-14T07:00:35.166Z,32.13
2022-10-14T07:03:04.025Z,25.73
2022-10-14T07:05:33.939Z,23.10
2022-10-14T07:08:02.156Z,24.30
2022-10-14T07:10:31.980Z,24.30
2022-10-14T07:13:00.299Z,23.00
2022-10-14T07:15:32.367Z,23.02
2022-10-14T07:18:02.380Z,20.98
2022-10-14T07:20:30.610Z,21.50
2022-10-14T07:23:00.232Z,22.42
2022-10-14T07:25:28.633Z,22.35
2022-10-14T07:27:56.867Z,23.40
2022-10-14T07:30:25.068Z,22.13
2022-10-14T07:32:53.787Z,22.33
2022-10-14T07:35:22.100Z,22.93
2022-10-14T07:37:50.598Z,22.58
2022-10-14T07:40:21.194Z,22.23
2022-10-14T07:42:49.565Z,23.77
2022-10-14T07:45:20.855Z,22.73
2022-10-14T07:47:50.892Z,23.58
2022-10-14T07:50:21.697Z,23.25
2022-10-14T07:52:50.368Z,22.98
2022-10-14T07:55:20.384Z,24.00
2022-10-14T07:57:48.557Z,56.20
2022-10-14T08:00:20.273Z,24.27
2022-10-14T08:02:48.735Z,23.55
2022-10-14T08:08:05.924Z,24.80
2022-10-14T08:10:37.328Z,24.17
2022-10-14T08:13:06.478Z,24.92
2022-10-14T08:15:40.493Z,23.63
2022-10-14T08:18:10.905Z,23.70
2022-10-14T08:20:41.034Z,24.30
2022-10-14T08:23:09.722Z,24.10
2022-10-14T08:25:41.358Z,23.77
2022-10-14T08:28:10.312Z,24.23
2022-10-14T08:30:38.838Z,24.67
2022-10-14T08:33:07.297Z,25.08
2022-10-14T08:35:35.790Z,24.95
2022-10-14T08:38:04.304Z,23.67
2022-10-14T08:40:54.883Z,23.75
2022-10-14T08:43:31.673Z,23.15
2022-10-14T08:46:12.646Z,23.98
2022-10-14T08:48:41.456Z,23.75
2022-10-14T08:51:13.141Z,25.10
2022-10-14T08:53:47.138Z,25.67
2022-10-14T08:56:20.275Z,23.20
2022-10-14T08:58:51.010Z,24.13
2022-10-14T09:01:24.842Z,24.23
2022-10-14T09:03:57.810Z,24.40
2022-10-14T09:06:27.763Z,24.88
2022-10-14T09:09:02.034Z,24.00
2022-10-14T09:11:36.736Z,23.85
2022-10-14T09:14:08.486Z,23.00
2022-10-14T09:16:40.048Z,22.85
2022-10-14T09:19:16.453Z,22.77
2022-10-14T09:21:53.111Z,24.17
2022-10-14T09:24:24.598Z,23.85
2022-10-14T09:26:58.051Z,24.40
2022-10-14T09:29:29.023Z,22.80
2022-10-14T09:32:00.284Z,22.92
2022-10-14T09:34:33.836Z,24.05
2022-10-14T09:37:19.544Z,23.50
2022-10-14T09:39:49.071Z,27.65
2022-10-14T09:42:22.504Z,28.65
2022-10-14T09:45:13.006Z,25.70
2022-10-14T09:47:47.101Z,24.70
2022-10-14T09:50:31.608Z,24.02
2022-10-14T09:53:03.780Z,23.17
2022-10-14T09:55:33.251Z,22.67
2022-10-14T09:58:08.972Z,23.00
2022-10-14T10:00:38.913Z,23.08
2022-10-14T10:03:11.517Z,21.90
2022-10-14T10:05:42.091Z,21.67
2022-10-14T10:08:18.674Z,26.42
2022-10-14T10:11:06.525Z,41.50
2022-10-14T10:13:41.473Z,34.97
2022-10-14T10:16:26.774Z,21.83
2022-10-14T10:18:57.424Z,21.98
2022-10-14T10:21:27.826Z,22.23
2022-10-14T10:23:58.963Z,22.15
2022-10-14T10:26:30.728Z,22.70
2022-10-14T10:29:02.721Z,21.77
2022-10-14T10:32:13.168Z,22.48
2022-10-14T10:35:02.828Z,20.80
2022-10-14T10:37:34.286Z,21.80
2022-10-14T10:40:22.450Z,21.63
2022-10-14T10:43:06.618Z,21.75
2022-10-14T10:45:50.680Z,22.48
2022-10-14T10:48:26.194Z,21.65
2022-10-14T10:51:01.847Z,21.83
2022-10-14T10:54:02.920Z,21.73
2022-10-14T10:56:41.254Z,23.58
2022-10-14T10:59:44.072Z,22.60
2022-10-14T11:02:49.855Z,25.15
2022-10-14T11:05:24.503Z,26.75
2022-10-14T11:08:14.527Z,23.70
2022-10-14T11:11:12.703Z,21.42
2022-10-14T11:29:59.070Z,25.23
2022-10-14T11:32:28.988Z,24.55
2022-10-14T11:35:02.013Z,23.75
2022-10-14T11:37:31.117Z,25.52
2022-10-14T11:40:02.192Z,28.10
2022-10-14T11:42:39.533Z,28.45
2022-10-14T11:45:29.041Z,26.00
2022-10-14T11:50:29.693Z,26.95
2022-10-14T11:53:02.417Z,25.73
2022-10-14T11:55:34.356Z,26.67
2022-10-14T11:58:06.431Z,22.85
2022-10-14T12:00:53.282Z,25.52
2022-10-14T12:03:23.286Z,25.17
2022-10-14T12:05:59.424Z,20.70
2022-10-14T12:08:34.699Z,18.58
2022-10-14T12:11:08.626Z,18.92
2022-10-14T12:13:42.004Z,18.58
2022-10-14T12:16:14.190Z,18.13
2022-10-14T12:18:43.971Z,16.83
2022-10-14T12:21:19.078Z,17.17
2022-10-14T12:23:48.334Z,17.45
2022-10-14T12:26:18.263Z,16.40
2022-10-14T12:28:46.751Z,17.80
2022-10-14T12:31:22.399Z,18.00
2022-10-14T12:34:11.522Z,16.38
2022-10-14T12:36:41.839Z,18.30
2022-10-14T12:39:28.295Z,18.35
2022-10-14T12:41:57.054Z,16.67
2022-10-14T12:44:29.625Z,18.23
2022-10-14T12:46:58.101Z,15.70
2022-10-14T12:49:32.371Z,18.40
2022-10-14T12:52:03.232Z,15.10
2022-10-14T12:54:32.154Z,14.65
2022-10-14T12:57:02.151Z,15.60
2022-10-14T12:59:32.173Z,13.50
2022-10-14T13:02:02.111Z,14.68
2022-10-14T13:04:30.492Z,13.82
2022-10-14T13:07:38.913Z,13.93
2022-10-14T13:10:19.968Z,14.68
2022-10-14T13:12:49.453Z,13.90
2022-10-14T13:15:32.622Z,10.73
2022-10-14T13:18:20.907Z,11.38
2022-10-14T13:20:52.765Z,12.60
2022-10-14T13:23:29.249Z,12.73
2022-10-14T13:26:00.472Z,12.45
2022-10-14T13:28:35.454Z,11.40
2022-10-14T13:31:06.395Z,13.23
2022-10-14T13:33:38.480Z,11.88
2022-10-14T13:36:12.049Z,11.85
2022-10-14T13:38:43.455Z,11.05
2022-10-14T13:41:16.132Z,11.20
2022-10-14T13:43:46.654Z,12.27
2022-10-14T13:46:17.131Z,10.77
2022-10-14T13:48:46.776Z,9.98
2022-10-14T13:51:37.238Z,10.07
2022-10-14T13:54:19.811Z,10.43
2022-10-14T13:57:38.295Z,10.77
2022-10-14T14:02:39.576Z,10.13
2022-10-14T14:05:15.161Z,9.63
2022-10-14T14:10:39.241Z,11.18
2022-10-14T14:13:15.581Z,11.23
2022-10-14T14:15:49.971Z,11.02
2022-10-14T14:18:34.067Z,10.70
2022-10-14T14:21:13.590Z,10.70
2022-10-14T14:23:49.753Z,9.88
2022-10-14T14:26:19.768Z,9.30
2022-10-14T14:28:49.663Z,10.45
2022-10-14T14:31:21.551Z,10.82
2022-10-14T14:33:50.097Z,10.30
2022-10-14T14:36:27.860Z,11.15
2022-10-14T14:39:08.544Z,10.85
2022-10-14T14:41:37.082Z,11.40
2022-10-14T14:44:24.667Z,12.98
2022-10-14T14:46:57.937Z,13.30
2022-10-14T14:49:29.013Z,15.07
2022-10-14T14:51:58.144Z,16.85
2022-10-14T14:54:30.136Z,16.38
2022-10-14T14:57:02.987Z,15.32
2022-10-14T14:59:35.848Z,15.95
2022-10-14T15:02:16.700Z,17.23
2022-10-14T15:04:48.630Z,17.52
2022-10-14T15:07:21.492Z,17.38
2022-10-14T15:09:56.488Z,17.33
2022-10-14T15:12:29.220Z,17.40
2022-10-14T15:15:01.332Z,18.27
2022-10-14T15:17:34.735Z,17.52
2022-10-14T15:20:19.277Z,17.13
2022-10-14T15:22:49.382Z,19.10
2022-10-14T15:27:51.397Z,18.05
2022-10-14T15:30:36.579Z,18.17
2022-10-14T15:33:17.319Z,19.65
2022-10-14T15:35:47.107Z,19.73
2022-10-14T15:38:18.437Z,18.58
2022-10-14T15:40:47.832Z,19.80
2022-10-14T15:43:18.539Z,20.48
2022-10-14T15:46:09.235Z,20.52
2022-10-14T15:48:42.820Z,20.02
2022-10-14T15:51:15.814Z,20.10
2022-10-14T15:53:47.163Z,20.13
2022-10-14T15:58:47.907Z,19.17
2022-10-14T16:01:19.370Z,19.95
2022-10-14T16:03:52.513Z,18.67
2022-10-14T16:06:23.425Z,17.55
2022-10-14T16:08:53.136Z,18.63
2022-10-14T16:13:51.220Z,19.48
2022-10-14T16:16:22.969Z,18.83
2022-10-14T16:18:53.408Z,19.58
2022-10-14T16:21:22.354Z,19.85
2022-10-14T16:23:53.115Z,19.17
2022-10-14T16:26:25.273Z,19.30
2022-10-14T16:28:56.217Z,20.20
2022-10-14T16:31:26.661Z,21.10
2022-10-14T16:33:59.200Z,20.75
2022-10-14T16:36:28.356Z,21.17
2022-10-14T16:38:59.359Z,21.40
2022-10-14T16:41:28.004Z,22.58
2022-10-14T16:43:56.281Z,22.00
2022-10-14T16:46:47.310Z,26.67
2022-10-14T16:49:19.473Z,36.50
2022-10-14T16:51:50.227Z,39.72
2022-10-14T16:54:20.124Z,36.65
2022-10-14T16:56:58.419Z,35.17
2022-10-14T16:59:29.582Z,35.58
2022-10-14T17:01:59.018Z,31.95
2022-10-14T17:04:30.666Z,29.52
2022-10-14T17:06:59.593Z,30.10
2022-10-14T17:09:30.355Z,27.85
2022-10-14T17:11:59.609Z,29.33
2022-10-14T17:14:31.935Z,34.28
2022-10-14T17:17:02.303Z,30.65
2022-10-14T17:19:35.905Z,28.23
2022-10-14T17:22:05.011Z,28.10
2022-10-14T17:24:34.448Z,26.67
2022-10-14T17:27:04.642Z,26.67
2022-10-14T17:29:41.465Z,25.40
2022-10-14T17:32:10.354Z,26.73
2022-10-14T17:34:40.091Z,23.37
2022-10-14T17:39:45.041Z,26.75
2022-10-14T17:42:14.724Z,24.95
2022-10-14T17:44:44.352Z,26.58
2022-10-14T17:47:14.424Z,25.67
2022-10-14T17:52:20.394Z,28.60
2022-10-14T17:54:55.388Z,30.77
2022-10-14T17:57:26.854Z,30.77
2022-10-14T17:59:57.775Z,30.92
2022-10-14T18:02:28.658Z,28.45
2022-10-14T18:04:59.402Z,28.00
2022-10-14T18:07:36.197Z,27.38
2022-10-14T18:10:05.283Z,30.55
2022-10-14T18:12:34.751Z,27.63
2022-10-14T18:15:03.893Z,26.92
2022-10-14T18:17:34.833Z,29.63
2022-10-14T18:20:07.322Z,28.75
2022-10-14T18:22:43.424Z,31.38
2022-10-14T18:25:15.979Z,31.33
2022-10-14T18:27:46.004Z,33.90
2022-10-14T18:30:14.759Z,32.30
2022-10-14T18:32:44.064Z,31.45
2022-10-14T18:35:14.531Z,29.92
2022-10-14T18:37:46.941Z,29.27
2022-10-14T18:40:21.005Z,30.50
2022-10-14T18:42:50.681Z,30.52
2022-10-14T18:45:18.978Z,31.95
2022-10-14T18:47:48.979Z,30.45
2022-10-14T18:50:17.957Z,28.90
2022-10-14T18:52:49.690Z,29.85
2022-10-14T18:55:18.791Z,28.38
2022-10-14T18:57:50.183Z,30.52
2022-10-14T19:00:19.939Z,30.98
2022-10-14T19:02:48.625Z,27.73
2022-10-14T19:05:17.838Z,32.03
2022-10-14T19:07:49.477Z,32.33
2022-10-14T19:10:20.580Z,30.98
2022-10-14T19:12:52.940Z,31.17
2022-10-14T19:15:27.012Z,31.20
2022-10-14T19:17:57.052Z,31.55
2022-10-14T19:20:26.719Z,34.45
2022-10-14T19:22:57.051Z,29.98
2022-10-14T19:25:27.525Z,33.42
2022-10-14T19:27:56.305Z,32.88
2022-10-14T19:30:25.116Z,37.60
2022-10-14T19:32:54.154Z,35.42
2022-10-14T19:35:23.976Z,35.97
2022-10-14T19:40:23.730Z,33.72
2022-10-14T19:42:56.174Z,33.08
2022-10-14T19:45:25.761Z,34.75
2022-10-14T19:47:55.742Z,35.72
2022-10-14T19:50:24.395Z,38.78
2022-10-14T19:52:53.570Z,39.35
2022-10-14T19:55:25.076Z,33.85
2022-10-14T19:57:58.482Z,34.47
2022-10-14T20:00:29.028Z,34.53
2022-10-14T20:02:59.643Z,34.42
2022-10-14T20:05:31.747Z,31.30
2022-10-14T20:08:03.386Z,34.45
2022-10-14T20:10:33.138Z,40.97
2022-10-14T20:13:05.844Z,36.08
2022-10-14T20:15:39.657Z,33.85
2022-10-14T20:18:10.309Z,31.15
2022-10-14T20:20:40.877Z,36.38
2022-10-14T20:23:09.149Z,34.42
2022-10-14T20:25:37.422Z,35.08
2022-10-14T20:28:08.670Z,34.92
2022-10-14T20:30:39.856Z,34.42
2022-10-14T20:33:08.294Z,30.73
2022-10-14T20:35:36.480Z,30.20
2022-10-14T20:38:05.264Z,35.35
2022-10-14T20:40:36.163Z,34.17
2022-10-14T20:43:05.047Z,33.17
2022-10-14T20:45:34.647Z,32.58
2022-10-14T20:48:03.086Z,36.30
2022-10-14T20:50:32.026Z,31.63
2022-10-14T20:53:01.510Z,30.70
2022-10-14T20:55:31.128Z,33.90
2022-10-14T20:57:59.686Z,32.78
2022-10-14T21:00:27.695Z,33.50
2022-10-14T21:02:57.601Z,32.92
2022-10-14T21:05:26.652Z,35.00
2022-10-14T21:07:55.954Z,35.42
2022-10-14T21:12:52.568Z,34.55
2022-10-14T21:15:20.854Z,34.45
2022-10-14T21:17:49.836Z,33.95
2022-10-14T21:20:19.906Z,35.83
2022-10-14T21:22:47.943Z,36.65
2022-10-14T21:25:16.484Z,38.80
2022-10-14T21:27:44.777Z,37.45
2022-10-14T21:30:13.474Z,37.50
2022-10-14T21:32:42.155Z,34.72
2022-10-14T21:35:10.579Z,36.47
2022-10-14T21:37:40.664Z,34.75
2022-10-14T21:40:10.065Z,36.60
2022-10-14T21:42:38.997Z,36.08
2022-10-14T21:45:07.918Z,35.00
2022-10-14T21:47:36.539Z,35.65
2022-10-14T21:50:04.695Z,36.92
2022-10-14T21:52:35.434Z,32.85
2022-10-14T21:55:05.608Z,32.72
2022-10-14T21:57:33.944Z,34.38
2022-10-14T22:00:02.839Z,33.83
2022-10-14T22:02:33.381Z,34.77
2022-10-14T22:05:02.353Z,34.13
2022-10-14T22:07:30.770Z,32.80
2022-10-14T22:09:58.924Z,35.03
2022-10-14T22:12:29.973Z,37.35
2022-10-14T22:14:58.275Z,34.45
2022-10-14T22:17:26.567Z,34.78
2022-10-14T22:19:54.741Z,37.28
2022-10-14T22:22:23.089Z,32.85
2022-10-14T22:24:51.125Z,31.00
2022-10-14T22:27:19.270Z,31.75
2022-10-14T22:29:49.311Z,33.20
2022-10-14T22:32:17.316Z,35.33
2022-10-14T22:34:45.284Z,37.28
2022-10-14T22:37:13.506Z,28.73
2022-10-14T22:39:41.582Z,34.15
2022-10-14T22:42:09.727Z,31.67
2022-10-14T22:44:38.428Z,30.40
2022-10-14T22:47:08.537Z,34.00
2022-10-14T22:49:36.642Z,33.60
2022-10-14T22:52:04.946Z,33.38
2022-10-14T22:54:33.179Z,35.80
2022-10-14T22:57:01.600Z,32.53
2022-10-14T22:59:29.902Z,35.13
2022-10-14T23:01:58.033Z,29.52
2022-10-14T23:04:27.594Z,33.45
2022-10-14T23:06:56.199Z,32.95
2022-10-14T23:09:24.488Z,35.05
2022-10-14T23:11:52.615Z,29.08
2022-10-14T23:14:21.064Z,33.53
2022-10-14T23:16:49.188Z,31.80
2022-10-14T23:19:17.451Z,30.75
2022-10-14T23:21:47.222Z,28.85
2022-10-14T23:24:15.351Z,27.15
2022-10-14T23:26:43.542Z,27.33
2022-10-14T23:29:12.928Z,30.15
2022-10-14T23:31:41.824Z,30.10
2022-10-14T23:34:12.071Z,30.88
2022-10-14T23:36:40.502Z,30.85
2022-10-14T23:39:10.593Z,30.98
2022-10-14T23:41:39.036Z,31.55
2022-10-14T23:44:07.326Z,32.28
2022-10-14T23:46:35.400Z,31.55
2022-10-14T23:49:14.302Z,28.33
2022-10-14T23:51:55.585Z,30.73
2022-10-14T23:54:28.367Z,29.73
2022-10-14T23:56:57.293Z,28.90
2022-10-14T23:59:25.759Z,29.55
